sensor_id;sensor_type;location;lat;lon;timestamp;pressure;altitude;pressure_sealevel;temperature;humidity
54306;BME280;66145;45.188;5.712;2023-01-15T00:01:26;99136.22;;;17.88;51.43
54306;BME280;66145;45.188;5.712;2023-01-15T00:03:53;99136.63;;;17.95;50.92
54306;BME280;66145;45.188;5.712;2023-01-15T00:06:20;99141.34;;;18.03;50.93
54306;BME280;66145;45.188;5.712;2023-01-15T00:08:45;99143.97;;;18.08;50.94
54306;BME280;66145;45.188;5.712;2023-01-15T00:11:11;99110.38;;;17.94;50.63
54306;BME280;66145;45.188;5.712;2023-01-15T00:13:37;99118.66;;;18.03;50.99
54306;BME280;66145;45.188;5.712;2023-01-15T00:16:14;99117.34;;;18.00;50.94
54306;BME280;66145;45.188;5.712;2023-01-15T00:18:39;99101.91;;;17.82;51.27
54306;BME280;66145;45.188;5.712;2023-01-15T00:21:06;99058.78;;;17.56;51.43
54306;BME280;66145;45.188;5.712;2023-01-15T00:23:33;99105.47;;;17.82;51.30
54306;BME280;66145;45.188;5.712;2023-01-15T00:26:18;99087.81;;;17.66;51.71
54306;BME280;66145;45.188;5.712;2023-01-15T00:29:03;99099.75;;;17.70;51.85
54306;BME280;66145;45.188;5.712;2023-01-15T00:31:30;99096.00;;;17.66;51.89
54306;BME280;66145;45.188;5.712;2023-01-15T00:33:56;99073.13;;;17.61;51.66
54306;BME280;66145;45.188;5.712;2023-01-15T00:36:22;99072.56;;;17.73;51.33
54306;BME280;66145;45.188;5.712;2023-01-15T00:38:47;99102.47;;;17.92;51.12
54306;BME280;66145;45.188;5.712;2023-01-15T00:41:13;99064.25;;;17.78;51.02
54306;BME280;66145;45.188;5.712;2023-01-15T00:43:38;99081.06;;;17.94;51.32
54306;BME280;66145;45.188;5.712;2023-01-15T00:46:04;99078.16;;;17.91;51.14
54306;BME280;66145;45.188;5.712;2023-01-15T00:48:30;99064.09;;;17.84;51.41
54306;BME280;66145;45.188;5.712;2023-01-15T00:50:56;99074.06;;;17.79;51.19
54306;BME280;66145;45.188;5.712;2023-01-15T00:53:21;99074.53;;;17.82;51.27
54306;BME280;66145;45.188;5.712;2023-01-15T00:55:47;99053.38;;;17.64;51.67
54306;BME280;66145;45.188;5.712;2023-01-15T00:58:12;99043.97;;;17.57;51.58
54306;BME280;66145;45.188;5.712;2023-01-15T01:00:37;99044.78;;;17.57;51.69
54306;BME280;66145;45.188;5.712;2023-01-15T01:03:03;99050.81;;;17.68;51.77
54306;BME280;66145;45.188;5.712;2023-01-15T01:05:30;99048.94;;;17.77;51.38
54306;BME280;66145;45.188;5.712;2023-01-15T01:07:55;99029.97;;;17.81;51.42
54306;BME280;66145;45.188;5.712;2023-01-15T01:10:23;99017.91;;;17.82;51.09
54306;BME280;66145;45.188;5.712;2023-01-15T01:12:49;99048.06;;;17.91;51.23
54306;BME280;66145;45.188;5.712;2023-01-15T01:15:16;98985.56;;;17.53;51.32
54306;BME280;66145;45.188;5.712;2023-01-15T01:17:42;99008.38;;;17.71;51.32
54306;BME280;66145;45.188;5.712;2023-01-15T01:20:08;98990.34;;;17.47;51.28
54306;BME280;66145;45.188;5.712;2023-01-15T01:22:34;99042.47;;;17.73;51.72
54306;BME280;66145;45.188;5.712;2023-01-15T01:24:59;99037.34;;;17.72;51.64
54306;BME280;66145;45.188;5.712;2023-01-15T01:27:25;99032.16;;;17.70;51.80
54306;BME280;66145;45.188;5.712;2023-01-15T01:29:50;99022.03;;;17.71;51.72
54306;BME280;66145;45.188;5.712;2023-01-15T01:32:15;99024.31;;;17.77;51.58
54306;BME280;66145;45.188;5.712;2023-01-15T01:34:41;99009.22;;;17.80;51.25
54306;BME280;66145;45.188;5.712;2023-01-15T01:37:06;99003.41;;;17.82;51.15
54306;BME280;66145;45.188;5.712;2023-01-15T01:39:31;98962.44;;;17.59;51.42
54306;BME280;66145;45.188;5.712;2023-01-15T01:41:57;99000.88;;;17.85;51.35
54306;BME280;66145;45.188;5.712;2023-01-15T01:46:58;98978.41;;;17.66;51.46
54306;BME280;66145;45.188;5.712;2023-01-15T01:49:25;98977.56;;;17.65;51.87
54306;BME280;66145;45.188;5.712;2023-01-15T01:51:55;98990.13;;;17.66;51.80
54306;BME280;66145;45.188;5.712;2023-01-15T01:54:24;99010.16;;;17.75;51.61
54306;BME280;66145;45.188;5.712;2023-01-15T01:56:51;98978.06;;;17.67;51.43
54306;BME280;66145;45.188;5.712;2023-01-15T01:59:19;98948.44;;;17.60;51.41
54306;BME280;66145;45.188;5.712;2023-01-15T02:01:47;98990.47;;;17.96;51.11
54306;BME280;66145;45.188;5.712;2023-01-15T02:04:13;98988.72;;;18.00;51.20
54306;BME280;66145;45.188;5.712;2023-01-15T02:06:41;98974.00;;;17.87;50.99
54306;BME280;66145;45.188;5.712;2023-01-15T02:09:07;99004.16;;;17.96;51.04
54306;BME280;66145;45.188;5.712;2023-01-15T02:11:33;98995.19;;;17.82;51.25
54306;BME280;66145;45.188;5.712;2023-01-15T02:14:12;99003.41;;;17.82;51.58
54306;BME280;66145;45.188;5.712;2023-01-15T02:25:32;99004.13;;;17.64;51.70
54306;BME280;66145;45.188;5.712;2023-01-15T02:28:11;98962.72;;;17.57;51.51
54306;BME280;66145;45.188;5.712;2023-01-15T02:30:44;99007.00;;;17.91;51.38
54306;BME280;66145;45.188;5.712;2023-01-15T02:33:27;99002.72;;;17.99;51.15
54306;BME280;66145;45.188;5.712;2023-01-15T02:35:57;98941.06;;;17.61;51.30
54306;BME280;66145;45.188;5.712;2023-01-15T02:38:28;98981.25;;;17.92;51.35
54306;BME280;66145;45.188;5.712;2023-01-15T02:40:58;98969.13;;;17.75;51.46
54306;BME280;66145;45.188;5.712;2023-01-15T02:43:26;98971.34;;;17.73;51.66
54306;BME280;66145;45.188;5.712;2023-01-15T02:45:55;98988.44;;;17.79;51.67
54306;BME280;66145;45.188;5.712;2023-01-15T02:48:24;98979.06;;;17.71;51.72
54306;BME280;66145;45.188;5.712;2023-01-15T02:50:55;98953.22;;;17.55;51.89
54306;BME280;66145;45.188;5.712;2023-01-15T02:53:26;98951.84;;;17.66;51.98
54306;BME280;66145;45.188;5.712;2023-01-15T02:55:56;98972.69;;;17.85;51.59
54306;BME280;66145;45.188;5.712;2023-01-15T02:58:27;98968.88;;;17.94;51.40
54306;BME280;66145;45.188;5.712;2023-01-15T03:00:55;98944.88;;;17.91;51.18
54306;BME280;66145;45.188;5.712;2023-01-15T03:06:20;98911.00;;;17.70;51.08
54306;BME280;66145;45.188;5.712;2023-01-15T03:08:49;98960.06;;;17.98;51.50
54306;BME280;66145;45.188;5.712;2023-01-15T03:11:16;98931.13;;;17.74;51.27
54306;BME280;66145;45.188;5.712;2023-01-15T03:19:21;98951.75;;;17.80;51.74
54306;BME280;66145;45.188;5.712;2023-01-15T03:22:05;98941.63;;;17.81;51.80
54306;BME280;66145;45.188;5.712;2023-01-15T03:24:34;98944.38;;;17.89;51.78
54306;BME280;66145;45.188;5.712;2023-01-15T03:27:02;98955.88;;;18.00;51.11
54306;BME280;66145;45.188;5.712;2023-01-15T03:29:32;98934.41;;;17.93;51.28
54306;BME280;66145;45.188;5.712;2023-01-15T03:31:58;98954.31;;;18.08;51.02
54306;BME280;66145;45.188;5.712;2023-01-15T03:34:27;98904.25;;;17.76;51.00
54306;BME280;66145;45.188;5.712;2023-01-15T03:36:58;98921.38;;;17.90;51.37
54306;BME280;66145;45.188;5.712;2023-01-15T03:39:23;98926.53;;;17.92;51.49
54306;BME280;66145;45.188;5.712;2023-01-15T03:49:56;98923.44;;;17.85;51.71
54306;BME280;66145;45.188;5.712;2023-01-15T03:55:26;98916.16;;;18.03;51.35
54306;BME280;66145;45.188;5.712;2023-01-15T03:57:59;98896.59;;;17.96;51.27
54306;BME280;66145;45.188;5.712;2023-01-15T04:00:38;98893.28;;;17.99;51.03
54306;BME280;66145;45.188;5.712;2023-01-15T04:03:07;98868.41;;;17.77;51.39
54306;BME280;66145;45.188;5.712;2023-01-15T04:05:35;98883.81;;;17.73;51.59
54306;BME280;66145;45.188;5.712;2023-01-15T04:08:02;98910.28;;;17.96;51.42
54306;BME280;66145;45.188;5.712;2023-01-15T04:10:28;98909.78;;;17.93;51.54
54306;BME280;66145;45.188;5.712;2023-01-15T04:12:53;98913.16;;;17.90;51.85
54306;BME280;66145;45.188;5.712;2023-01-15T04:15:19;98904.75;;;17.78;51.83
54306;BME280;66145;45.188;5.712;2023-01-15T04:17:44;98910.38;;;17.82;51.77
54306;BME280;66145;45.188;5.712;2023-01-15T04:20:11;98862.81;;;17.51;52.02
54306;BME280;66145;45.188;5.712;2023-01-15T04:22:36;98890.50;;;17.58;52.13
54306;BME280;66145;45.188;5.712;2023-01-15T04:25:03;98903.94;;;17.69;52.27
54306;BME280;66145;45.188;5.712;2023-01-15T04:27:28;98849.88;;;17.34;52.32
54306;BME280;66145;45.188;5.712;2023-01-15T04:29:54;98891.69;;;17.75;52.19
54306;BME280;66145;45.188;5.712;2023-01-15T04:32:19;98899.94;;;17.84;51.76
54306;BME280;66145;45.188;5.712;2023-01-15T04:34:44;98890.97;;;17.92;51.81
54306;BME280;66145;45.188;5.712;2023-01-15T04:37:10;98895.31;;;17.93;51.61
54306;BME280;66145;45.188;5.712;2023-01-15T04:39:35;98889.66;;;17.81;52.07
54306;BME280;66145;45.188;5.712;2023-01-15T04:42:01;98905.41;;;17.84;51.71
54306;BME280;66145;45.188;5.712;2023-01-15T04:44:45;98902.34;;;17.76;52.09
54306;BME280;66145;45.188;5.712;2023-01-15T04:47:10;98902.16;;;17.73;52.17
54306;BME280;66145;45.188;5.712;2023-01-15T04:49:35;98877.63;;;17.50;52.35
54306;BME280;66145;45.188;5.712;2023-01-15T04:52:01;98873.94;;;17.55;52.40
54306;BME280;66145;45.188;5.712;2023-01-15T04:54:27;98851.81;;;17.33;52.27
54306;BME280;66145;45.188;5.712;2023-01-15T04:56:53;98879.56;;;17.58;52.34
54306;BME280;66145;45.188;5.712;2023-01-15T04:59:21;98896.25;;;17.79;52.18
54306;BME280;66145;45.188;5.712;2023-01-15T05:01:47;98886.56;;;17.73;52.03
54306;BME280;66145;45.188;5.712;2023-01-15T05:04:12;98899.44;;;17.82;51.95
54306;BME280;66145;45.188;5.712;2023-01-15T05:06:38;98898.03;;;17.84;52.05
54306;BME280;66145;45.188;5.712;2023-01-15T05:09:04;98868.50;;;17.63;52.08
54306;BME280;66145;45.188;5.712;2023-01-15T05:11:30;98875.91;;;17.63;52.19
54306;BME280;66145;45.188;5.712;2023-01-15T05:13:56;98894.59;;;17.70;52.29
54306;BME280;66145;45.188;5.712;2023-01-15T05:16:23;98861.38;;;17.54;52.50
54306;BME280;66145;45.188;5.712;2023-01-15T05:18:51;98870.75;;;17.61;52.46
54306;BME280;66145;45.188;5.712;2023-01-15T05:21:22;98869.59;;;17.54;52.62
54306;BME280;66145;45.188;5.712;2023-01-15T05:23:50;98825.59;;;17.32;52.50
54306;BME280;66145;45.188;5.712;2023-01-15T05:26:16;98854.50;;;17.56;52.31
54306;BME280;66145;45.188;5.712;2023-01-15T05:28:42;98872.72;;;17.70;52.34
54306;BME280;66145;45.188;5.712;2023-01-15T05:31:12;98873.41;;;17.84;51.95
54306;BME280;66145;45.188;5.712;2023-01-15T05:33:38;98879.66;;;17.85;52.11
54306;BME280;66145;45.188;5.712;2023-01-15T05:36:09;98824.84;;;17.49;52.22
54306;BME280;66145;45.188;5.712;2023-01-15T05:38:35;98875.00;;;17.76;52.28
54306;BME280;66145;45.188;5.712;2023-01-15T05:41:09;98852.72;;;17.60;52.47
54306;BME280;66145;45.188;5.712;2023-01-15T05:43:55;98858.72;;;17.71;52.57
54306;BME280;66145;45.188;5.712;2023-01-15T05:46:21;98841.75;;;17.52;52.55
54306;BME280;66145;45.188;5.712;2023-01-15T05:48:47;98862.88;;;17.60;52.57
54306;BME280;66145;45.188;5.712;2023-01-15T05:51:13;98868.16;;;17.65;52.70
54306;BME280;66145;45.188;5.712;2023-01-15T05:53:38;98869.97;;;17.70;52.48
54306;BME280;66145;45.188;5.712;2023-01-15T05:56:04;98818.56;;;17.49;52.41
54306;BME280;66145;45.188;5.712;2023-01-15T05:58:30;98864.22;;;17.80;52.23
54306;BME280;66145;45.188;5.712;2023-01-15T06:00:55;98882.41;;;17.85;52.30
54306;BME280;66145;45.188;5.712;2023-01-15T06:03:22;98875.66;;;17.82;52.41
54306;BME280;66145;45.188;5.712;2023-01-15T06:05:52;98856.59;;;17.68;52.41
54306;BME280;66145;45.188;5.712;2023-01-15T06:08:18;98821.44;;;17.44;52.56
54306;BME280;66145;45.188;5.712;2023-01-15T06:10:44;98848.84;;;17.61;52.50
54306;BME280;66145;45.188;5.712;2023-01-15T06:13:09;98871.91;;;17.69;52.49
54306;BME280;66145;45.188;5.712;2023-01-15T06:15:35;98809.03;;;17.29;53.03
54306;BME280;66145;45.188;5.712;2023-01-15T06:18:00;98821.19;;;17.23;52.92
54306;BME280;66145;45.188;5.712;2023-01-15T06:20:26;98870.91;;;17.65;52.92
54306;BME280;66145;45.188;5.712;2023-01-15T06:22:51;98849.47;;;17.58;52.64
54306;BME280;66145;45.188;5.712;2023-01-15T06:25:16;98862.75;;;17.83;52.43
54306;BME280;66145;45.188;5.712;2023-01-15T06:27:41;98812.31;;;17.57;52.01
54306;BME280;66145;45.188;5.712;2023-01-15T06:30:10;98851.31;;;17.72;52.27
54306;BME280;66145;45.188;5.712;2023-01-15T06:32:35;98861.81;;;17.78;52.47
54306;BME280;66145;45.188;5.712;2023-01-15T06:35:01;98861.94;;;17.73;52.76
54306;BME280;66145;45.188;5.712;2023-01-15T06:37:26;98860.94;;;17.69;52.74
54306;BME280;66145;45.188;5.712;2023-01-15T06:39:51;98863.34;;;17.62;52.87
54306;BME280;66145;45.188;5.712;2023-01-15T06:42:17;98869.44;;;17.59;52.96
54306;BME280;66145;45.188;5.712;2023-01-15T06:45:00;98820.09;;;17.24;52.91
54306;BME280;66145;45.188;5.712;2023-01-15T06:47:46;98833.34;;;17.39;53.11
54306;BME280;66145;45.188;5.712;2023-01-15T06:50:11;98868.53;;;17.72;52.70
54306;BME280;66145;45.188;5.712;2023-01-15T06:52:37;98866.78;;;17.76;52.66
54306;BME280;66145;45.188;5.712;2023-01-15T06:55:02;98873.25;;;17.81;52.49
54306;BME280;66145;45.188;5.712;2023-01-15T06:57:27;98829.69;;;17.53;52.17
54306;BME280;66145;45.188;5.712;2023-01-15T06:59:53;98833.03;;;17.49;52.45
54306;BME280;66145;45.188;5.712;2023-01-15T07:02:18;98862.53;;;17.61;52.72
54306;BME280;66145;45.188;5.712;2023-01-15T07:04:46;98861.78;;;17.70;52.70
54306;BME280;66145;45.188;5.712;2023-01-15T07:07:13;98878.31;;;17.64;52.80
54306;BME280;66145;45.188;5.712;2023-01-15T07:09:39;98882.13;;;17.55;52.96
54306;BME280;66145;45.188;5.712;2023-01-15T07:12:04;98880.38;;;17.59;53.00
54306;BME280;66145;45.188;5.712;2023-01-15T07:14:30;98868.59;;;17.49;53.15
54306;BME280;66145;45.188;5.712;2023-01-15T07:16:56;98909.66;;;17.58;53.05
54306;BME280;66145;45.188;5.712;2023-01-15T07:19:23;98903.94;;;17.69;52.94
54306;BME280;66145;45.188;5.712;2023-01-15T07:21:49;98912.34;;;17.81;52.62
54306;BME280;66145;45.188;5.712;2023-01-15T07:24:15;98911.22;;;17.82;52.46
54306;BME280;66145;45.188;5.712;2023-01-15T07:26:41;98873.00;;;17.68;52.44
54306;BME280;66145;45.188;5.712;2023-01-15T07:29:07;98894.63;;;17.78;52.61
54306;BME280;66145;45.188;5.712;2023-01-15T07:31:32;98870.94;;;17.74;52.69
54306;BME280;66145;45.188;5.712;2023-01-15T07:33:58;98857.22;;;17.65;52.69
54306;BME280;66145;45.188;5.712;2023-01-15T07:36:25;98867.38;;;17.64;52.86
54306;BME280;66145;45.188;5.712;2023-01-15T07:38:50;98878.16;;;17.61;52.74
54306;BME280;66145;45.188;5.712;2023-01-15T07:41:16;98883.63;;;17.61;52.97
54306;BME280;66145;45.188;5.712;2023-01-15T07:44:00;98857.84;;;17.53;52.85
54306;BME280;66145;45.188;5.712;2023-01-15T07:46:44;98889.78;;;17.75;52.67
54306;BME280;66145;45.188;5.712;2023-01-15T07:49:28;98859.97;;;17.65;52.44
54306;BME280;66145;45.188;5.712;2023-01-15T07:52:20;98876.44;;;17.83;52.24
54306;BME280;66145;45.188;5.712;2023-01-15T07:54:47;98876.78;;;17.81;52.42
54306;BME280;66145;45.188;5.712;2023-01-15T07:57:16;98850.81;;;17.61;52.70
54306;BME280;66145;45.188;5.712;2023-01-15T07:59:43;98860.63;;;17.62;52.64
54306;BME280;66145;45.188;5.712;2023-01-15T08:02:09;98858.00;;;17.57;52.76
54306;BME280;66145;45.188;5.712;2023-01-15T08:04:34;98849.03;;;17.65;52.81
54306;BME280;66145;45.188;5.712;2023-01-15T08:07:01;98843.81;;;17.46;53.33
54306;BME280;66145;45.188;5.712;2023-01-15T08:09:27;98854.00;;;17.54;53.14
54306;BME280;66145;45.188;5.712;2023-01-15T08:11:53;98804.84;;;17.31;52.80
54306;BME280;66145;45.188;5.712;2023-01-15T08:14:37;98812.94;;;17.45;52.70
54306;BME280;66145;45.188;5.712;2023-01-15T08:17:21;98851.34;;;17.81;52.41
54306;BME280;66145;45.188;5.712;2023-01-15T08:19:46;98842.63;;;17.70;52.52
54306;BME280;66145;45.188;5.712;2023-01-15T08:22:12;98829.75;;;17.70;52.50
54306;BME280;66145;45.188;5.712;2023-01-15T08:24:37;98837.47;;;17.68;52.65
54306;BME280;66145;45.188;5.712;2023-01-15T08:27:03;98839.91;;;17.70;52.81
54306;BME280;66145;45.188;5.712;2023-01-15T08:29:29;98845.00;;;17.62;52.77
54306;BME280;66145;45.188;5.712;2023-01-15T08:31:54;98856.09;;;17.66;52.79
54306;BME280;66145;45.188;5.712;2023-01-15T08:34:20;98804.34;;;17.29;52.87
54306;BME280;66145;45.188;5.712;2023-01-15T08:36:47;98842.41;;;17.57;53.26
54306;BME280;66145;45.188;5.712;2023-01-15T08:39:14;98797.78;;;17.39;53.09
54306;BME280;66145;45.188;5.712;2023-01-15T08:41:39;98819.44;;;17.67;52.77
54306;BME280;66145;45.188;5.712;2023-01-15T08:44:05;98802.72;;;17.69;52.47
54306;BME280;66145;45.188;5.712;2023-01-15T08:46:30;98806.13;;;17.83;52.47
54306;BME280;66145;45.188;5.712;2023-01-15T08:48:56;98814.97;;;17.80;52.50
54306;BME280;66145;45.188;5.712;2023-01-15T08:51:21;98782.25;;;17.66;52.55
54306;BME280;66145;45.188;5.712;2023-01-15T08:53:46;98808.84;;;17.74;52.71
54306;BME280;66145;45.188;5.712;2023-01-15T08:56:13;98819.94;;;17.69;52.61
54306;BME280;66145;45.188;5.712;2023-01-15T08:58:39;98771.53;;;17.29;52.87
54306;BME280;66145;45.188;5.712;2023-01-15T09:01:06;98823.44;;;17.61;52.93
54306;BME280;66145;45.188;5.712;2023-01-15T09:03:32;98825.78;;;17.45;52.83
54306;BME280;66145;45.188;5.712;2023-01-15T09:05:59;98811.13;;;17.41;52.85
54306;BME280;66145;45.188;5.712;2023-01-15T09:08:25;98845.16;;;17.66;52.93
54306;BME280;66145;45.188;5.712;2023-01-15T09:10:50;98790.59;;;17.43;52.51
54306;BME280;66145;45.188;5.712;2023-01-15T09:13:16;98834.63;;;17.82;52.35
54306;BME280;66145;45.188;5.712;2023-01-15T09:15:41;98828.97;;;17.78;52.57
54306;BME280;66145;45.188;5.712;2023-01-15T09:18:07;98838.31;;;17.77;52.45
54306;BME280;66145;45.188;5.712;2023-01-15T09:20:35;98834.91;;;17.72;52.64
54306;BME280;66145;45.188;5.712;2023-01-15T09:23:00;98834.91;;;17.72;52.68
54306;BME280;66145;45.188;5.712;2023-01-15T09:25:25;98823.63;;;17.64;52.70
54306;BME280;66145;45.188;5.712;2023-01-15T09:27:54;98817.50;;;17.59;52.69
54306;BME280;66145;45.188;5.712;2023-01-15T09:32:42;98838.25;;;18.53;51.41
54306;BME280;66145;45.188;5.712;2023-01-15T09:35:07;98873.03;;;18.79;51.00
54306;BME280;66145;45.188;5.712;2023-01-15T09:37:33;98913.84;;;18.80;51.28
54306;BME280;66145;45.188;5.712;2023-01-15T09:39:58;98901.91;;;18.76;51.20
54306;BME280;66145;45.188;5.712;2023-01-15T09:45:15;98950.72;;;18.74;51.01
54306;BME280;66145;45.188;5.712;2023-01-15T09:56:01;98889.94;;;18.19;51.24
54306;BME280;66145;45.188;5.712;2023-01-15T09:58:34;98912.66;;;18.29;51.16
54306;BME280;66145;45.188;5.712;2023-01-15T10:01:01;98989.03;;;18.48;51.37
54306;BME280;66145;45.188;5.712;2023-01-15T10:04:11;99003.06;;;18.46;51.38
54306;BME280;66145;45.188;5.712;2023-01-15T10:06:48;99023.81;;;18.38;51.15
54306;BME280;66145;45.188;5.712;2023-01-15T10:09:16;99006.34;;;18.17;51.63
54306;BME280;66145;45.188;5.712;2023-01-15T10:11:46;99035.53;;;18.30;51.87
54306;BME280;66145;45.188;5.712;2023-01-15T10:14:56;98979.25;;;17.75;51.66
54306;BME280;66145;45.188;5.712;2023-01-15T10:17:45;99056.47;;;18.26;51.80
54306;BME280;66145;45.188;5.712;2023-01-15T10:20:16;99043.53;;;18.18;51.74
54306;BME280;66145;45.188;5.712;2023-01-15T10:25:15;99064.41;;;18.36;51.38
54306;BME280;66145;45.188;5.712;2023-01-15T10:27:45;99054.56;;;18.35;51.20
54306;BME280;66145;45.188;5.712;2023-01-15T10:30:42;99062.44;;;18.37;51.23
54306;BME280;66145;45.188;5.712;2023-01-15T10:36:09;99067.84;;;18.11;51.53
54306;BME280;66145;45.188;5.712;2023-01-15T10:43:57;99088.28;;;18.13;51.79
54306;BME280;66145;45.188;5.712;2023-01-15T10:46:28;99086.63;;;18.03;51.87
54306;BME280;66145;45.188;5.712;2023-01-15T10:49:04;99028.38;;;17.57;51.71
54306;BME280;66145;45.188;5.712;2023-01-15T10:51:40;99108.06;;;18.10;51.97
54306;BME280;66145;45.188;5.712;2023-01-15T10:54:28;99115.03;;;18.16;51.48
54306;BME280;66145;45.188;5.712;2023-01-15T10:59:56;99073.69;;;17.95;51.35
54306;BME280;66145;45.188;5.712;2023-01-15T11:02:41;99107.50;;;18.22;51.00
54306;BME280;66145;45.188;5.712;2023-01-15T11:05:16;99104.88;;;18.17;51.35
54306;BME280;66145;45.188;5.712;2023-01-15T11:07:50;99041.34;;;17.74;51.25
54306;BME280;66145;45.188;5.712;2023-01-15T11:10:18;99108.19;;;18.05;51.65
54306;BME280;66145;45.188;5.712;2023-01-15T11:13:24;99122.88;;;18.09;51.49
54306;BME280;66145;45.188;5.712;2023-01-15T11:16:21;99101.78;;;17.87;51.71
54306;BME280;66145;45.188;5.712;2023-01-15T11:19:37;99128.09;;;17.97;51.75
54306;BME280;66145;45.188;5.712;2023-01-15T11:22:18;99143.09;;;17.99;52.13
54306;BME280;66145;45.188;5.712;2023-01-15T11:24:49;99158.47;;;18.09;51.49
54306;BME280;66145;45.188;5.712;2023-01-15T11:27:19;99114.03;;;17.89;51.37
54306;BME280;66145;45.188;5.712;2023-01-15T11:29:51;99095.50;;;17.63;51.36
54306;BME280;66145;45.188;5.712;2023-01-15T11:32:26;99162.69;;;18.15;51.35
54306;BME280;66145;45.188;5.712;2023-01-15T11:34:54;99135.50;;;17.96;51.59
54306;BME280;66145;45.188;5.712;2023-01-15T11:37:19;99131.69;;;17.83;51.36
54306;BME280;66145;45.188;5.712;2023-01-15T11:40:21;99168.78;;;18.12;51.50
54306;BME280;66145;45.188;5.712;2023-01-15T11:42:49;99156.78;;;17.99;51.72
54306;BME280;66145;45.188;5.712;2023-01-15T11:45:33;99163.75;;;18.05;51.64
54306;BME280;66145;45.188;5.712;2023-01-15T11:48:22;99121.25;;;17.85;51.41
54306;BME280;66145;45.188;5.712;2023-01-15T11:51:10;99163.50;;;18.16;51.36
54306;BME280;66145;45.188;5.712;2023-01-15T11:53:45;99165.56;;;18.10;51.40
54306;BME280;66145;45.188;5.712;2023-01-15T11:56:21;99177.00;;;18.12;51.44
54306;BME280;66145;45.188;5.712;2023-01-15T11:58:50;99178.44;;;18.09;51.23
54306;BME280;66145;45.188;5.712;2023-01-15T12:01:28;99157.41;;;17.96;51.25
54306;BME280;66145;45.188;5.712;2023-01-15T12:03:57;99184.41;;;18.12;51.27
54306;BME280;66145;45.188;5.712;2023-01-15T12:06:22;99182.28;;;18.08;51.46
54306;BME280;66145;45.188;5.712;2023-01-15T12:08:53;99175.38;;;18.11;51.39
54306;BME280;66145;45.188;5.712;2023-01-15T12:11:37;99171.34;;;18.08;51.29
54306;BME280;66145;45.188;5.712;2023-01-15T12:14:30;99160.19;;;18.05;51.50
54306;BME280;66145;45.188;5.712;2023-01-15T12:25:22;99070.78;;;17.69;51.22
54306;BME280;66145;45.188;5.712;2023-01-15T12:28:09;99114.72;;;17.95;51.13
54306;BME280;66145;45.188;5.712;2023-01-15T12:36:24;99155.53;;;18.05;51.51
54306;BME280;66145;45.188;5.712;2023-01-15T12:38:57;99133.75;;;18.00;51.47
54306;BME280;66145;45.188;5.712;2023-01-15T12:41:39;99149.94;;;18.11;51.24
54306;BME280;66145;45.188;5.712;2023-01-15T12:47:21;99145.81;;;18.22;50.92
54306;BME280;66145;45.188;5.712;2023-01-15T12:49:59;99141.97;;;18.23;50.68
54306;BME280;66145;45.188;5.712;2023-01-15T12:52:32;99156.66;;;18.27;50.86
54306;BME280;66145;45.188;5.712;2023-01-15T12:55:07;99155.38;;;18.33;50.79
54306;BME280;66145;45.188;5.712;2023-01-15T12:57:36;99146.50;;;18.28;50.76
54306;BME280;66145;45.188;5.712;2023-01-15T13:00:35;99157.63;;;18.31;50.79
54306;BME280;66145;45.188;5.712;2023-01-15T13:03:20;99156.00;;;18.30;50.77
54306;BME280;66145;45.188;5.712;2023-01-15T13:05:52;99080.72;;;17.87;50.77
54306;BME280;66145;45.188;5.712;2023-01-15T13:08:34;99151.97;;;18.28;50.87
54306;BME280;66145;45.188;5.712;2023-01-15T13:11:02;99129.28;;;18.04;51.13
54306;BME280;66145;45.188;5.712;2023-01-15T13:13:34;99126.22;;;18.06;50.98
54306;BME280;66145;45.188;5.712;2023-01-15T13:21:35;99141.59;;;18.16;50.66
54306;BME280;66145;45.188;5.712;2023-01-15T13:24:08;99136.50;;;18.23;50.75
54306;BME280;66145;45.188;5.712;2023-01-15T13:32:26;99151.47;;;18.26;50.66
54306;BME280;66145;45.188;5.712;2023-01-15T13:35:06;99172.13;;;18.32;50.88
54306;BME280;66145;45.188;5.712;2023-01-15T13:37:39;99169.69;;;18.30;50.82
54306;BME280;66145;45.188;5.712;2023-01-15T13:42:53;99152.25;;;18.17;50.73
54306;BME280;66145;45.188;5.712;2023-01-15T13:50:40;99146.44;;;18.19;50.48
54306;BME280;66145;45.188;5.712;2023-01-15T13:55:34;99171.50;;;18.35;50.51
54306;BME280;66145;45.188;5.712;2023-01-15T13:58:00;99146.16;;;18.20;50.70
54306;BME280;66145;45.188;5.712;2023-01-15T14:00:31;99179.06;;;18.38;50.54
54306;BME280;66145;45.188;5.712;2023-01-15T14:02:59;99176.13;;;18.26;50.81
54306;BME280;66145;45.188;5.712;2023-01-15T14:07:50;99157.09;;;18.20;50.63
54306;BME280;66145;45.188;5.712;2023-01-15T14:12:56;99190.09;;;18.47;50.32
54306;BME280;66145;45.188;5.712;2023-01-15T14:18:14;99198.78;;;18.49;50.70
54306;BME280;66145;45.188;5.712;2023-01-15T14:31:55;99195.00;;;18.59;50.58
54306;BME280;66145;45.188;5.712;2023-01-15T14:34:13;99197.44;;;18.60;50.80
54306;BME280;66145;45.188;5.712;2023-01-15T14:39:30;99198.28;;;18.69;50.45
54306;BME280;66145;45.188;5.712;2023-01-15T14:44:57;99171.66;;;18.70;50.22
54306;BME280;66145;45.188;5.712;2023-01-15T14:47:31;99200.75;;;18.89;50.29
54306;BME280;66145;45.188;5.712;2023-01-15T14:52:51;99144.06;;;18.58;50.43
54306;BME280;66145;45.188;5.712;2023-01-15T14:55:18;99136.75;;;18.44;50.84
54306;BME280;66145;45.188;5.712;2023-01-15T14:58:13;99201.72;;;18.84;50.43
54306;BME280;66145;45.188;5.712;2023-01-15T15:00:38;99142.59;;;18.51;50.70
54306;BME280;66145;45.188;5.712;2023-01-15T15:03:20;99165.84;;;18.63;50.70
54306;BME280;66145;45.188;5.712;2023-01-15T15:05:47;99189.31;;;18.87;50.71
54306;BME280;66145;45.188;5.712;2023-01-15T15:08:15;99193.22;;;18.94;50.46
54306;BME280;66145;45.188;5.712;2023-01-15T15:10:52;99150.91;;;18.78;50.25
54306;BME280;66145;45.188;5.712;2023-01-15T15:13:28;99157.88;;;18.84;50.42
54306;BME280;66145;45.188;5.712;2023-01-15T15:16:18;99214.72;;;19.10;50.39
54306;BME280;66145;45.188;5.712;2023-01-15T15:18:51;99132.97;;;18.63;50.40
54306;BME280;66145;45.188;5.712;2023-01-15T15:21:27;99195.22;;;19.03;50.28